Terminal Aerodrome Forecast
Issued by NWS

Home | Current Version | Previous Version | Graphics & Text | Print | Product List | Glossary On
Versions: 1 2 3 4 5 6 7 8 9 10 11 12 13 14 15 16 17 18 19 20 21 22 23 24
000
FTUS43 KSGF 252357 CCA
TAFJLN
TAF COR
KJLN 252357Z 2600/2624 VRB03KT P6SM -RA OVC040
      TEMPO 2603/2604 4SM -SHRA OVC020
     FM260700 36004KT P6SM BKN010
     FM260900 34004KT P6SM BKN005
     FM261200 34004KT P6SM BKN012
     FM261700 31004KT P6SM SCT025=

USA.gov is the U.S. government's official web portal to all federal, state and local government web resources and services.